createdAt,value
2022-11-17T00:02:23.657Z,90.45
2022-11-17T00:04:50.242Z,90.64
2022-11-17T00:07:16.892Z,90.90
2022-11-17T00:09:43.585Z,90.68
2022-11-17T00:12:10.094Z,90.49
2022-11-17T00:14:38.468Z,89.50
2022-11-17T00:17:07.015Z,89.72
2022-11-17T00:19:33.749Z,88.79
2022-11-17T00:22:00.335Z,89.92
2022-11-17T00:24:27.148Z,89.94
2022-11-17T00:26:53.637Z,89.29
2022-11-17T00:29:20.339Z,89.40
2022-11-17T00:31:48.203Z,88.99
2022-11-17T00:34:17.679Z,89.12
2022-11-17T00:36:46.007Z,89.25
2022-11-17T00:39:13.894Z,88.45
2022-11-17T00:41:40.892Z,88.88
2022-11-17T00:44:08.391Z,88.60
2022-11-17T00:46:36.015Z,87.88
2022-11-17T00:49:04.661Z,87.59
2022-11-17T00:51:31.563Z,87.74
2022-11-17T00:53:58.085Z,86.71
2022-11-17T00:56:24.937Z,86.65
2022-11-17T00:58:51.964Z,85.78
2022-11-17T01:01:18.983Z,85.51
2022-11-17T01:03:45.778Z,85.31
2022-11-17T01:06:16.540Z,85.71
2022-11-17T01:08:43.357Z,86.06
2022-11-17T01:11:11.858Z,84.26
2022-11-17T01:13:40.146Z,84.74
2022-11-17T01:16:08.603Z,85.08
2022-11-17T01:18:35.914Z,85.30
2022-11-17T01:21:08.013Z,86.54
2022-11-17T01:23:37.358Z,86.97
2022-11-17T01:26:05.714Z,86.56
2022-11-17T01:28:32.535Z,87.17
2022-11-17T01:31:00.531Z,87.01
2022-11-17T01:33:27.082Z,86.96
2022-11-17T01:35:53.585Z,87.38
2022-11-17T01:38:20.176Z,86.76
2022-11-17T01:40:48.021Z,87.58
2022-11-17T01:43:14.527Z,87.20
2022-11-17T01:45:41.286Z,87.23
2022-11-17T01:48:09.660Z,87.22
2022-11-17T01:50:38.657Z,86.75
2022-11-17T01:53:08.996Z,87.69
2022-11-17T01:55:38.549Z,87.65
2022-11-17T01:58:10.503Z,88.61
2022-11-17T02:00:37.173Z,89.37
2022-11-17T02:03:04.591Z,90.09
2022-11-17T02:05:39.465Z,90.80
2022-11-17T02:08:06.784Z,89.22
2022-11-17T02:10:35.194Z,90.16
2022-11-17T02:13:02.247Z,89.08
2022-11-17T02:15:30.186Z,89.63
2022-11-17T02:17:58.080Z,89.83
2022-11-17T02:20:37.851Z,89.92
2022-11-17T02:23:39.552Z,89.37
2022-11-17T02:26:20.869Z,89.26
2022-11-17T02:28:57.426Z,90.19
2022-11-17T02:31:42.319Z,90.98
2022-11-17T02:34:18.760Z,90.67
2022-11-17T02:37:22.647Z,90.91
2022-11-17T02:39:56.207Z,90.89
2022-11-17T02:42:30.493Z,91.11
2022-11-17T02:45:02.423Z,90.27
2022-11-17T02:47:32.811Z,90.74
2022-11-17T02:50:01.772Z,90.61
2022-11-17T02:52:29.933Z,90.98
2022-11-17T02:54:59.561Z,91.63
2022-11-17T02:57:29.944Z,90.66
2022-11-17T03:00:01.324Z,91.25
2022-11-17T03:02:49.917Z,91.73
2022-11-17T03:05:22.879Z,91.15
2022-11-17T03:08:06.860Z,91.19
2022-11-17T03:10:45.169Z,91.58
2022-11-17T03:13:18.805Z,91.98
2022-11-17T03:15:53.760Z,90.82
2022-11-17T03:18:27.593Z,92.21
2022-11-17T03:21:05.162Z,90.68
2022-11-17T03:23:38.358Z,91.20
2022-11-17T03:26:10.951Z,91.86
2022-11-17T03:28:39.181Z,91.56
2022-11-17T03:31:07.954Z,92.01
2022-11-17T03:33:37.313Z,92.14
2022-11-17T03:36:06.896Z,92.20
2022-11-17T03:38:37.600Z,92.83
2022-11-17T03:41:07.090Z,92.32
2022-11-17T03:43:34.393Z,93.07
2022-11-17T03:46:05.681Z,92.31
2022-11-17T03:48:37.819Z,92.20
2022-11-17T03:51:08.104Z,91.86
2022-11-17T03:53:36.052Z,92.20
2022-11-17T03:56:11.411Z,93.38
2022-11-17T03:58:46.445Z,93.42
2022-11-17T04:01:14.608Z,92.22
2022-11-17T04:03:42.519Z,90.72
2022-11-17T04:06:09.120Z,91.19
2022-11-17T04:08:35.703Z,89.85
2022-11-17T04:11:02.266Z,89.87
2022-11-17T04:13:28.778Z,89.42
2022-11-17T04:15:55.711Z,89.60
2022-11-17T04:18:23.135Z,89.82
2022-11-17T04:20:52.936Z,88.95
2022-11-17T04:23:20.015Z,89.23
2022-11-17T04:25:48.151Z,88.95
2022-11-17T04:28:14.808Z,90.08
2022-11-17T04:30:41.390Z,89.96
2022-11-17T04:33:07.871Z,90.58
2022-11-17T04:35:34.495Z,91.23
2022-11-17T04:38:02.507Z,91.49
2022-11-17T04:40:29.045Z,91.39
2022-11-17T04:42:55.536Z,91.58
2022-11-17T04:45:22.048Z,91.86
2022-11-17T04:47:48.527Z,90.34
2022-11-17T04:50:15.665Z,90.21
2022-11-17T04:52:42.176Z,91.34
2022-11-17T04:55:10.261Z,91.41
2022-11-17T04:57:36.769Z,90.35
2022-11-17T05:00:04.021Z,89.77
2022-11-17T05:02:30.555Z,89.91
2022-11-17T05:04:57.110Z,90.38
2022-11-17T05:07:23.683Z,90.82
2022-11-17T05:09:50.188Z,90.53
2022-11-17T05:12:18.032Z,91.54
2022-11-17T05:14:45.245Z,91.38
2022-11-17T05:17:12.102Z,90.82
2022-11-17T05:19:39.916Z,89.35
2022-11-17T05:22:07.696Z,89.05
2022-11-17T05:24:34.175Z,88.44
2022-11-17T05:27:00.683Z,88.69
2022-11-17T05:29:28.570Z,88.97
2022-11-17T05:31:55.092Z,89.44
2022-11-17T05:34:21.618Z,87.94
2022-11-17T05:36:48.132Z,87.89
2022-11-17T05:39:14.690Z,88.92
2022-11-17T05:41:41.225Z,88.76
2022-11-17T05:44:07.764Z,87.94
2022-11-17T05:46:35.722Z,87.58
2022-11-17T05:49:02.584Z,87.28
2022-11-17T05:51:29.263Z,87.43
2022-11-17T05:53:55.780Z,87.55
2022-11-17T05:56:33.817Z,87.38
2022-11-17T05:59:06.556Z,87.48
2022-11-17T06:01:36.552Z,87.15
2022-11-17T06:04:05.338Z,86.55
2022-11-17T06:06:34.703Z,87.66
2022-11-17T06:09:01.298Z,87.53
2022-11-17T06:11:27.801Z,87.56
2022-11-17T06:13:54.312Z,86.52
2022-11-17T06:16:26.030Z,87.08
2022-11-17T06:18:56.552Z,87.08
2022-11-17T06:21:23.127Z,87.36
2022-11-17T06:23:50.385Z,86.95
2022-11-17T06:26:17.059Z,86.47
2022-11-17T06:28:46.467Z,87.07
2022-11-17T06:31:14.144Z,87.15
2022-11-17T06:33:41.006Z,87.37
2022-11-17T06:36:09.574Z,87.97
2022-11-17T06:38:36.223Z,88.34
2022-11-17T06:41:07.402Z,88.13
2022-11-17T06:43:37.466Z,88.60
2022-11-17T06:46:04.983Z,89.16
2022-11-17T06:48:32.187Z,89.64
2022-11-17T06:50:58.770Z,89.69
2022-11-17T06:53:26.705Z,90.18
2022-11-17T06:55:53.714Z,90.24
2022-11-17T06:58:20.305Z,91.31
2022-11-17T07:00:46.863Z,92.73
2022-11-17T07:03:13.478Z,92.21
2022-11-17T07:05:40.542Z,93.03
2022-11-17T07:08:08.803Z,92.97
2022-11-17T07:10:38.090Z,93.03
2022-11-17T07:13:04.707Z,94.70
2022-11-17T07:15:31.733Z,94.82
2022-11-17T07:17:58.319Z,95.46
2022-11-17T07:20:24.960Z,96.28
2022-11-17T07:22:51.508Z,97.18
2022-11-17T07:25:22.292Z,97.69
2022-11-17T07:27:57.439Z,97.66
2022-11-17T07:30:24.015Z,96.57
2022-11-17T07:32:54.488Z,95.79
2022-11-17T07:35:21.494Z,96.12
2022-11-17T07:37:47.987Z,96.55
2022-11-17T07:40:15.222Z,96.69
2022-11-17T07:42:41.743Z,97.68
2022-11-17T07:45:10.333Z,97.52
2022-11-17T07:47:36.828Z,97.35
2022-11-17T07:50:03.645Z,97.48
2022-11-17T07:52:31.068Z,97.38
2022-11-17T07:54:57.630Z,97.18
2022-11-17T07:57:24.258Z,97.35
2022-11-17T07:59:50.854Z,97.65
2022-11-17T08:02:18.714Z,97.53
2022-11-17T08:04:45.352Z,97.77
2022-11-17T08:07:11.895Z,98.34
2022-11-17T08:09:38.555Z,98.11
2022-11-17T08:12:05.480Z,98.39
2022-11-17T08:14:32.115Z,98.80
2022-11-17T08:16:58.610Z,98.88
2022-11-17T08:19:26.546Z,98.76
2022-11-17T08:21:53.312Z,98.84
2022-11-17T08:24:19.891Z,99.36
2022-11-17T08:26:46.398Z,98.53
2022-11-17T08:29:12.993Z,98.15
2022-11-17T08:31:39.642Z,98.33
2022-11-17T08:34:06.278Z,98.16
2022-11-17T08:36:34.121Z,98.43
2022-11-17T08:39:00.898Z,98.53
2022-11-17T08:41:27.469Z,98.46
2022-11-17T08:43:54.081Z,98.47
2022-11-17T08:46:20.658Z,98.35
2022-11-17T08:48:48.959Z,98.54
2022-11-17T08:51:18.928Z,98.89
2022-11-17T08:53:46.788Z,98.74
2022-11-17T08:56:13.448Z,98.81
2022-11-17T08:58:40.119Z,98.31
2022-11-17T09:01:08.135Z,98.79
2022-11-17T09:03:34.664Z,98.37
2022-11-17T09:06:01.310Z,98.78
2022-11-17T09:08:45.104Z,98.15
2022-11-17T09:11:15.306Z,98.45
2022-11-17T09:13:42.029Z,97.94
2022-11-17T09:16:10.808Z,97.69
2022-11-17T09:18:38.794Z,97.38
2022-11-17T09:21:08.075Z,97.53
2022-11-17T09:23:35.225Z,96.04
2022-11-17T09:26:05.381Z,93.58
2022-11-17T09:28:33.459Z,94.49
2022-11-17T09:31:06.181Z,94.33
2022-11-17T09:33:32.763Z,94.98
2022-11-17T09:35:59.302Z,95.32
2022-11-17T09:38:25.908Z,93.60
2022-11-17T09:40:52.512Z,88.83
2022-11-17T09:43:26.899Z,89.25
2022-11-17T09:46:04.480Z,86.16
2022-11-17T09:48:51.214Z,86.39
2022-11-17T09:51:21.816Z,86.45
2022-11-17T09:53:54.004Z,84.33
2022-11-17T09:56:21.524Z,86.76
2022-11-17T09:58:53.380Z,85.66
2022-11-17T10:01:23.055Z,87.59
2022-11-17T10:03:50.885Z,87.35
2022-11-17T10:06:19.892Z,88.94
2022-11-17T10:08:54.598Z,81.15
2022-11-17T10:11:21.192Z,81.87
2022-11-17T10:13:47.896Z,79.23
2022-11-17T10:16:14.518Z,77.18
2022-11-17T10:18:42.368Z,77.06
2022-11-17T10:21:09.030Z,74.73
2022-11-17T10:23:44.390Z,75.74
2022-11-17T10:26:15.806Z,72.86
2022-11-17T10:28:42.719Z,72.99
2022-11-17T10:31:12.912Z,74.04
2022-11-17T10:33:43.506Z,72.17
2022-11-17T10:36:18.711Z,71.59
2022-11-17T10:38:46.649Z,71.59
2022-11-17T10:41:16.625Z,71.36
2022-11-17T10:43:55.714Z,69.96
2022-11-17T10:46:22.340Z,69.12
2022-11-17T10:48:56.522Z,69.04
2022-11-17T10:51:25.080Z,69.91
2022-11-17T10:54:02.263Z,70.72
2022-11-17T10:56:30.490Z,70.29
2022-11-17T10:59:02.343Z,69.47
2022-11-17T11:01:31.395Z,70.05
2022-11-17T11:03:59.453Z,68.65
2022-11-17T11:06:27.916Z,68.83
2022-11-17T11:08:58.242Z,67.55
2022-11-17T11:11:43.495Z,68.35
2022-11-17T11:14:19.039Z,70.22
2022-11-17T11:16:48.507Z,68.57
2022-11-17T11:19:18.113Z,68.55
2022-11-17T11:22:20.787Z,68.66
2022-11-17T11:24:54.749Z,67.55
2022-11-17T11:27:37.581Z,68.24
2022-11-17T11:30:08.944Z,68.37
2022-11-17T11:32:46.405Z,68.33
2022-11-17T11:35:44.367Z,68.50
2022-11-17T11:38:29.391Z,68.55
2022-11-17T11:41:10.581Z,69.23
2022-11-17T11:43:44.462Z,68.84
2022-11-17T11:46:17.224Z,68.76
2022-11-17T11:48:46.921Z,67.12
2022-11-17T11:51:19.077Z,67.39
2022-11-17T11:53:51.819Z,67.33
2022-11-17T11:56:24.729Z,67.35
2022-11-17T11:58:59.053Z,66.86
2022-11-17T12:01:28.567Z,66.67
2022-11-17T12:04:05.951Z,64.95
2022-11-17T12:06:41.756Z,64.99
2022-11-17T12:09:34.708Z,64.52
2022-11-17T12:12:08.300Z,64.82
2022-11-17T12:14:36.632Z,65.19
2022-11-17T12:17:06.800Z,64.90
2022-11-17T12:19:54.869Z,64.73
2022-11-17T12:22:47.494Z,64.33
2022-11-17T12:25:18.210Z,63.94
2022-11-17T12:27:47.717Z,62.26
2022-11-17T12:30:50.507Z,63.66
2022-11-17T12:33:17.079Z,63.32
2022-11-17T12:35:43.606Z,63.91
2022-11-17T12:38:39.602Z,63.61
2022-11-17T12:41:06.198Z,62.81
2022-11-17T12:43:32.727Z,63.58
2022-11-17T12:46:11.393Z,63.20
2022-11-17T12:48:39.445Z,63.33
2022-11-17T12:51:15.124Z,62.31
2022-11-17T12:53:56.123Z,62.33
2022-11-17T12:56:38.098Z,62.63
2022-11-17T12:59:26.007Z,62.37
2022-11-17T13:01:59.188Z,61.51
2022-11-17T13:04:34.755Z,62.31
2022-11-17T13:07:02.993Z,61.70
2022-11-17T13:09:32.636Z,60.66
2022-11-17T13:12:00.585Z,60.85
2022-11-17T13:14:27.246Z,59.28
2022-11-17T13:16:53.872Z,59.11
2022-11-17T13:19:33.213Z,58.64
2022-11-17T13:22:01.475Z,59.37
2022-11-17T13:24:32.411Z,58.99
2022-11-17T13:27:00.334Z,57.61
2022-11-17T13:29:26.874Z,57.36
2022-11-17T13:32:12.414Z,56.32
2022-11-17T13:34:45.901Z,56.16
2022-11-17T13:37:16.633Z,55.62
2022-11-17T13:39:59.585Z,54.08
2022-11-17T13:42:29.763Z,53.70
2022-11-17T13:44:58.784Z,53.81
2022-11-17T13:47:41.802Z,54.56
2022-11-17T13:50:22.297Z,54.81
2022-11-17T13:52:54.291Z,55.67
2022-11-17T13:55:23.741Z,55.45
2022-11-17T13:57:55.677Z,55.58
2022-11-17T14:00:22.719Z,55.09
2022-11-17T14:02:52.818Z,54.48
2022-11-17T14:05:22.620Z,55.19
2022-11-17T14:07:49.890Z,54.70
2022-11-17T14:10:29.383Z,54.72
2022-11-17T14:13:19.120Z,54.96
2022-11-17T14:15:53.658Z,54.47
2022-11-17T14:18:35.728Z,55.22
2022-11-17T14:21:05.712Z,55.25
2022-11-17T14:23:32.214Z,56.16
2022-11-17T14:26:00.101Z,56.49
2022-11-17T14:28:26.680Z,57.48
2022-11-17T14:30:54.735Z,58.34
2022-11-17T14:33:21.912Z,58.75
2022-11-17T14:35:52.317Z,58.55
2022-11-17T14:38:21.819Z,58.67
2022-11-17T14:40:49.568Z,59.14
2022-11-17T14:43:17.712Z,59.63
2022-11-17T14:45:44.403Z,59.91
2022-11-17T14:48:18.705Z,59.69
2022-11-17T14:50:45.855Z,60.33
2022-11-17T14:53:12.363Z,61.83
2022-11-17T14:55:38.946Z,62.70
2022-11-17T14:58:05.482Z,62.48
2022-11-17T15:00:33.423Z,62.97
2022-11-17T15:02:59.954Z,63.36
2022-11-17T15:05:26.601Z,63.57
2022-11-17T15:07:53.097Z,63.08
2022-11-17T15:10:19.885Z,62.27
2022-11-17T15:12:46.446Z,62.06
2022-11-17T15:15:13.168Z,63.33
2022-11-17T15:17:41.079Z,64.03
2022-11-17T15:20:08.905Z,63.70
2022-11-17T15:22:35.565Z,63.83
2022-11-17T15:25:02.163Z,63.91
2022-11-17T15:27:28.705Z,63.82
2022-11-17T15:29:55.264Z,64.94
2022-11-17T15:32:21.801Z,65.65
2022-11-17T15:34:49.888Z,66.93
2022-11-17T15:37:16.432Z,67.65
2022-11-17T15:39:45.988Z,68.09
2022-11-17T15:42:12.813Z,67.77
2022-11-17T15:44:39.391Z,69.21
2022-11-17T15:47:05.964Z,69.99
2022-11-17T15:49:32.517Z,70.57
2022-11-17T15:52:00.375Z,70.67
2022-11-17T15:54:26.939Z,71.15
2022-11-17T15:56:53.522Z,71.04
2022-11-17T15:59:20.482Z,71.79
2022-11-17T16:01:47.516Z,72.03
2022-11-17T16:04:15.264Z,71.98
2022-11-17T16:06:44.101Z,72.63
2022-11-17T16:09:13.404Z,72.72
2022-11-17T16:11:40.682Z,73.12
2022-11-17T16:14:07.429Z,73.21
2022-11-17T16:16:35.766Z,73.42
2022-11-17T16:19:02.707Z,74.30
2022-11-17T16:21:29.304Z,74.35
2022-11-17T16:23:57.412Z,74.90
2022-11-17T16:26:27.002Z,75.36
2022-11-17T16:28:56.340Z,75.62
2022-11-17T16:31:24.757Z,75.96
2022-11-17T16:33:53.247Z,75.98
2022-11-17T16:36:22.453Z,76.71
2022-11-17T16:39:00.436Z,76.71
2022-11-17T16:41:32.615Z,76.98
2022-11-17T16:43:59.647Z,77.53
2022-11-17T16:46:27.903Z,77.36
2022-11-17T16:48:55.208Z,77.82
2022-11-17T16:51:22.404Z,78.94
2022-11-17T16:53:55.425Z,79.43
2022-11-17T16:56:22.458Z,79.63
2022-11-17T16:58:50.939Z,79.87
2022-11-17T17:01:19.955Z,80.34
2022-11-17T17:03:46.498Z,80.76
2022-11-17T17:06:15.309Z,80.80
2022-11-17T17:08:41.913Z,81.61
2022-11-17T17:11:10.192Z,81.73
2022-11-17T17:13:37.279Z,82.12
2022-11-17T17:16:07.736Z,82.01
2022-11-17T17:18:34.882Z,82.27
2022-11-17T17:21:01.949Z,82.17
2022-11-17T17:23:28.860Z,82.51
2022-11-17T17:26:03.275Z,82.77
2022-11-17T17:28:31.377Z,82.80
2022-11-17T17:30:57.969Z,83.09
2022-11-17T17:33:25.968Z,83.51
2022-11-17T17:35:52.591Z,83.74
2022-11-17T17:38:19.217Z,83.59
2022-11-17T17:40:45.754Z,84.00
2022-11-17T17:43:12.360Z,84.05
2022-11-17T17:45:38.930Z,84.13
2022-11-17T17:48:05.891Z,84.72
2022-11-17T17:50:33.802Z,84.86
2022-11-17T17:53:00.537Z,85.29
2022-11-17T17:55:27.194Z,85.67
2022-11-17T17:57:53.823Z,85.64
2022-11-17T18:00:20.742Z,86.28
2022-11-17T18:02:47.356Z,86.27
2022-11-17T18:05:14.001Z,86.35
2022-11-17T18:07:42.051Z,86.42
2022-11-17T18:10:09.173Z,86.66
2022-11-17T18:12:35.826Z,86.89
2022-11-17T18:15:02.370Z,86.98
2022-11-17T18:17:29.039Z,87.28
2022-11-17T18:19:55.607Z,87.66
2022-11-17T18:22:22.205Z,87.66
2022-11-17T18:24:50.070Z,87.71
2022-11-17T18:27:16.773Z,88.20
2022-11-17T18:29:43.324Z,88.57
2022-11-17T18:32:09.984Z,89.28
2022-11-17T18:34:36.589Z,89.43
2022-11-17T18:37:03.944Z,89.64
2022-11-17T18:39:30.499Z,89.67
2022-11-17T18:41:58.454Z,89.67
2022-11-17T18:44:25.005Z,90.31
2022-11-17T18:46:51.669Z,90.39
2022-11-17T18:49:18.606Z,90.96
2022-11-17T18:51:45.670Z,90.70
2022-11-17T18:54:12.297Z,90.98
2022-11-17T18:56:39.223Z,90.77
2022-11-17T18:59:07.571Z,90.96
2022-11-17T19:01:34.282Z,91.35
2022-11-17T19:04:00.857Z,91.48
2022-11-17T19:06:27.885Z,92.80
2022-11-17T19:08:54.665Z,93.60
2022-11-17T19:11:22.943Z,93.44
2022-11-17T19:13:49.911Z,93.46
2022-11-17T19:16:20.494Z,93.54
2022-11-17T19:18:48.805Z,93.74
2022-11-17T19:21:16.952Z,94.08
2022-11-17T19:23:50.784Z,94.24
2022-11-17T19:26:20.211Z,94.45
2022-11-17T19:28:46.883Z,95.00
2022-11-17T19:31:17.385Z,95.18
2022-11-17T19:33:46.870Z,94.92
2022-11-17T19:36:15.593Z,94.75
2022-11-17T19:38:42.378Z,94.81
2022-11-17T19:41:10.575Z,95.33
2022-11-17T19:43:43.413Z,95.04
2022-11-17T19:46:13.404Z,94.71
2022-11-17T19:48:40.793Z,94.42
2022-11-17T19:51:17.629Z,94.59
2022-11-17T19:53:44.353Z,94.25
2022-11-17T19:56:11.060Z,93.95
2022-11-17T19:58:37.972Z,94.38
2022-11-17T20:01:09.158Z,94.35
2022-11-17T20:03:36.765Z,94.50
2022-11-17T20:06:03.994Z,94.85
2022-11-17T20:08:32.308Z,95.31
2022-11-17T20:11:03.483Z,95.07
2022-11-17T20:13:30.282Z,94.95
2022-11-17T20:15:57.118Z,94.61
2022-11-17T20:18:23.800Z,95.12
2022-11-17T20:20:50.615Z,95.14
2022-11-17T20:23:17.215Z,95.49
2022-11-17T20:25:45.453Z,95.53
2022-11-17T20:28:12.112Z,95.95
2022-11-17T20:30:38.956Z,96.30
2022-11-17T20:33:06.193Z,96.45
2022-11-17T20:35:32.906Z,96.94
2022-11-17T20:37:59.568Z,97.25
2022-11-17T20:40:26.065Z,97.43
2022-11-17T20:42:54.409Z,97.24
2022-11-17T20:45:21.047Z,97.30
2022-11-17T20:47:47.692Z,97.35
2022-11-17T20:50:14.328Z,97.68
2022-11-17T20:52:40.933Z,97.80
2022-11-17T20:55:08.332Z,97.72
2022-11-17T20:57:34.978Z,97.95
2022-11-17T21:00:03.221Z,98.05
2022-11-17T21:02:29.785Z,98.17
2022-11-17T21:04:56.313Z,97.84
2022-11-17T21:07:22.989Z,97.61
2022-11-17T21:09:49.619Z,97.77
2022-11-17T21:12:16.202Z,97.52
2022-11-17T21:14:42.752Z,97.99
2022-11-17T21:17:10.863Z,97.87
2022-11-17T21:19:39.172Z,97.54
2022-11-17T21:22:05.913Z,97.62
2022-11-17T21:24:32.425Z,97.62
2022-11-17T21:26:59.154Z,97.88
2022-11-17T21:29:25.677Z,98.26
2022-11-17T21:31:52.201Z,98.57
2022-11-17T21:34:20.158Z,98.93
2022-11-17T21:36:46.743Z,98.61
2022-11-17T21:39:13.338Z,98.80
2022-11-17T21:41:40.142Z,98.75
2022-11-17T21:44:06.672Z,98.79
2022-11-17T21:46:34.191Z,98.03
2022-11-17T21:49:01.282Z,98.14
2022-11-17T21:51:30.745Z,98.31
2022-11-17T21:53:59.169Z,97.84
2022-11-17T21:56:27.105Z,98.20
2022-11-17T21:58:54.496Z,97.87
2022-11-17T22:01:21.244Z,97.56
2022-11-17T22:03:47.806Z,97.24
2022-11-17T22:06:16.018Z,97.36
2022-11-17T22:08:44.825Z,97.37
2022-11-17T22:11:12.877Z,97.39
2022-11-17T22:13:40.145Z,97.30
2022-11-17T22:16:09.622Z,97.54
2022-11-17T22:18:36.291Z,97.44
2022-11-17T22:21:03.517Z,97.78
2022-11-17T22:23:30.471Z,97.95
2022-11-17T22:26:00.424Z,98.04
2022-11-17T22:28:27.413Z,98.14
2022-11-17T22:30:54.461Z,98.53
2022-11-17T22:33:22.116Z,98.58
2022-11-17T22:35:48.931Z,98.66
2022-11-17T22:38:16.007Z,99.09
2022-11-17T22:40:43.161Z,99.17
2022-11-17T22:43:15.273Z,98.82
2022-11-17T22:45:42.459Z,98.89
2022-11-17T22:48:09.441Z,98.83
2022-11-17T22:50:36.460Z,98.66
2022-11-17T22:53:03.091Z,99.16
2022-11-17T22:55:30.320Z,99.06
2022-11-17T22:57:56.843Z,99.15
2022-11-17T23:00:24.813Z,99.43
2022-11-17T23:02:51.371Z,98.97
2022-11-17T23:05:18.316Z,98.61
2022-11-17T23:07:44.929Z,99.01
2022-11-17T23:10:12.033Z,99.86
2022-11-17T23:12:40.483Z,100.00
2022-11-17T23:15:08.531Z,99.63
2022-11-17T23:17:36.501Z,100.00
2022-11-17T23:20:03.452Z,99.97
2022-11-17T23:22:29.986Z,100.00
2022-11-17T23:24:56.592Z,99.67
2022-11-17T23:27:23.146Z,99.18
2022-11-17T23:29:49.715Z,99.03
2022-11-17T23:32:16.230Z,99.72
2022-11-17T23:34:44.168Z,100.00
2022-11-17T23:37:10.901Z,99.98
2022-11-17T23:39:37.776Z,100.00
2022-11-17T23:42:05.048Z,100.00
2022-11-17T23:44:31.689Z,100.00
2022-11-17T23:46:58.262Z,100.00
2022-11-17T23:49:25.218Z,100.00
2022-11-17T23:51:53.077Z,100.00
2022-11-17T23:54:19.751Z,100.00
2022-11-17T23:56:46.303Z,100.00
2022-11-17T23:59:12.988Z,100.00
